Time;durP1;ratioP1;P1;durP2;ratioP2;P2;SDS_P1;SDS_P2;PMS_P1;PMS_P2;Temp;Humidity;BMP_temperature;BMP_pressure;BME280_temperature;BME280_humidity;BME280_pressure;Samples;Min_cycle;Max_cycle;Signal;HPM_P1;HPM_P2
2022/03/28 08:16:38;;;;;;;29.85;20.08;;;;;;;;;;6182864;22;20025;-89
2022/03/28 08:19:03;;;;;;;25.80;19.65;;;;;;;;;;6186950;23;20321;-89
2022/03/28 08:54:56;;;;;;;25.73;18.73;;;;;;;;;;6178744;23;20012;-87
2022/03/28 08:57:21;;;;;;;27.98;19.52;;;;;;;;;;6246380;23;20004;-85
2022/03/28 08:59:47;;;;;;;28.60;20.38;;;;;;;;;;6246990;23;20004;-85
2022/03/28 09:02:31;;;;;;;30.60;20.98;;;;;;;;;;6246600;23;20004;-85
2022/03/28 09:04:57;;;;;;;28.42;19.35;;;;;;;;;;6220257;23;20000;-89
2022/03/28 09:07:27;;;;;;;26.30;20.00;;;;;;;;;;6247292;23;20004;-89
2022/03/28 09:09:56;;;;;;;;;;;;;;;;;;6221210;23;20335;-89
2022/03/28 09:12:21;;;;;;;28.42;20.55;;;;;;;;;;6220187;23;19912;-88
2022/03/28 09:14:58;;;;;;;26.50;19.92;;;;;;;;;;6220347;23;20309;-88
2022/03/28 09:17:29;;;;;;;32.42;20.33;;;;;;;;;;6247101;23;20000;-89
2022/03/28 09:20:02;;;;;;;28.23;19.98;;;;;;;;;;6247073;23;20026;-89
2022/03/28 09:22:41;;;;;;;30.60;19.33;;;;;;;;;;6220058;23;20058;-93
2022/03/28 09:25:09;;;;;;;30.43;20.70;;;;;;;;;;6246777;23;20004;-89
2022/03/28 09:27:39;;;;;;;26.45;20.45;;;;;;;;;;6219972;23;20004;-88
2022/03/28 09:30:11;;;;;;;;;;;;;;;;;;6220332;23;20031;-88
2022/03/28 09:32:40;;;;;;;26.20;18.90;;;;;;;;;;6246850;23;20323;-89
2022/03/28 09:35:09;;;;;;;24.25;18.15;;;;;;;;;;6220298;23;20031;-88
2022/03/28 09:38:04;;;;;;;26.70;18.30;;;;;;;;;;6220067;23;20004;-88
2022/03/28 09:40:39;;;;;;;29.50;19.38;;;;;;;;;;6246882;23;20012;-89
2022/03/28 09:43:16;;;;;;;27.63;18.30;;;;;;;;;;6219865;23;20343;-88
2022/03/28 09:45:43;;;;;;;28.20;19.95;;;;;;;;;;6246627;23;20004;-88
2022/03/28 09:48:15;;;;;;;24.33;19.08;;;;;;;;;;6246610;23;20000;-88
2022/03/28 09:51:01;;;;;;;21.95;17.73;;;;;;;;;;6219728;23;20012;-87
2022/03/28 09:53:36;;;;;;;26.17;19.20;;;;;;;;;;6219750;23;20008;-88
2022/03/28 09:56:06;;;;;;;24.10;18.05;;;;;;;;;;6247790;22;20097;-88
2022/03/28 09:58:46;;;;;;;24.27;19.00;;;;;;;;;;6248902;22;20004;-88
2022/03/28 10:01:18;;;;;;;26.63;18.73;;;;;;;;;;6275905;22;20000;-89
2022/03/28 10:03:52;;;;;;;26.92;19.25;;;;;;;;;;6248877;22;20065;-87
2022/03/28 10:06:19;;;;;;;24.25;19.08;;;;;;;;;;6275693;22;20011;-87
2022/03/28 10:08:46;;;;;;;30.02;19.33;;;;;;;;;;6275812;22;20004;-87
2022/03/28 10:11:12;;;;;;;25.67;19.10;;;;;;;;;;6249492;22;20330;-85
2022/03/28 10:13:39;;;;;;;27.20;19.60;;;;;;;;;;6279382;22;20488;-84
2022/03/28 10:16:05;;;;;;;23.00;18.38;;;;;;;;;;6279200;22;20030;-86
2022/03/28 10:18:32;;;;;;;24.73;18.27;;;;;;;;;;6279223;22;20026;-86
2022/03/28 10:21:15;;;;;;;24.33;18.88;;;;;;;;;;6251852;22;20030;-86
2022/03/28 10:23:52;;;;;;;26.17;18.23;;;;;;;;;;6252397;22;20612;-85
2022/03/28 10:26:28;;;;;;;27.75;19.17;;;;;;;;;;6279329;22;20003;-87
2022/03/28 10:29:15;;;;;;;24.65;18.67;;;;;;;;;;6279230;22;20449;-86
2022/03/28 10:31:55;;;;;;;23.63;18.80;;;;;;;;;;6278598;22;20025;-87
2022/03/28 10:34:52;;;;;;;24.52;19.30;;;;;;;;;;6251841;22;20087;-86
2022/03/28 10:37:49;;;;;;;25.52;18.98;;;;;;;;;;6279048;22;20030;-88
2022/03/28 10:40:23;;;;;;;23.20;19.48;;;;;;;;;;6278997;22;20007;-89
2022/03/28 10:43:11;;;;;;;24.52;18.73;;;;;;;;;;6279010;22;20003;-88
2022/03/28 10:45:38;;;;;;;24.87;19.03;;;;;;;;;;6251908;22;20082;-87
2022/03/28 10:48:08;;;;;;;24.83;19.25;;;;;;;;;;6278903;22;20236;-88
2022/03/28 10:50:33;;;;;;;22.80;18.67;;;;;;;;;;6278739;22;20004;-89
2022/03/28 10:53:11;;;;;;;21.33;18.75;;;;;;;;;;6279133;22;20029;-89
2022/03/28 10:55:43;;;;;;;25.63;18.73;;;;;;;;;;6227428;22;1211628;-89
2022/03/28 10:58:30;;;;;;;22.15;18.67;;;;;;;;;;6255463;22;20430;-87
2022/03/28 11:01:08;;;;;;;23.95;18.67;;;;;;;;;;6252870;22;20011;-86
2022/03/28 11:03:40;;;;;;;22.67;18.25;;;;;;;;;;6254019;22;20008;-90
2022/03/28 11:06:06;;;;;;;24.52;18.35;;;;;;;;;;6288559;22;20055;-87
2022/03/28 11:08:33;;;;;;;21.55;18.25;;;;;;;;;;6280974;22;20057;-89
2022/03/28 11:11:17;;;;;;;25.08;18.70;;;;;;;;;;6280418;22;20027;-88
2022/03/28 11:13:43;;;;;;;24.27;18.83;;;;;;;;;;6280578;22;20031;-89
2022/03/28 11:16:19;;;;;;;20.98;17.38;;;;;;;;;;6280464;22;19995;-88
2022/03/28 11:19:04;;;;;;;21.48;17.83;;;;;;;;;;6252940;22;20327;-89
2022/03/28 11:21:43;;;;;;;22.98;18.02;;;;;;;;;;6252714;22;20014;-89
2022/03/28 11:24:10;;;;;;;24.45;18.38;;;;;;;;;;6251920;22;20008;-92
2022/03/28 11:26:38;;;;;;;22.52;18.38;;;;;;;;;;6279467;22;20022;-93
2022/03/28 11:29:06;;;;;;;25.20;18.13;;;;;;;;;;6251960;22;20422;-88
2022/03/28 11:31:34;;;;;;;24.52;19.13;;;;;;;;;;6279219;22;19995;-90
2022/03/28 11:34:09;;;;;;;23.00;18.23;;;;;;;;;;6251949;22;20087;-88
2022/03/28 11:36:37;;;;;;;21.70;17.50;;;;;;;;;;6251666;22;20007;-88
2022/03/28 11:39:04;;;;;;;24.88;18.27;;;;;;;;;;6279012;22;20000;-90
2022/03/28 11:41:30;;;;;;;24.75;18.90;;;;;;;;;;6278771;22;20011;-90
2022/03/28 11:43:57;;;;;;;24.40;18.48;;;;;;;;;;6251580;22;20004;-89
2022/03/28 11:46:24;;;;;;;25.73;19.08;;;;;;;;;;6278490;22;19999;-89
2022/03/28 16:14:33;;;;;;;30.47;19.37;;;;;;;;;;6214763;23;20012;-89
2022/03/28 16:16:59;;;;;;;29.38;18.38;;;;;;;;;;6217141;23;20015;-88
2022/03/28 16:19:25;;;;;;;29.88;19.58;;;;;;;;;;6217075;23;20372;-88
2022/03/28 16:21:52;;;;;;;30.35;18.60;;;;;;;;;;6215590;23;20012;-89
2022/03/28 16:24:20;;;;;;;28.73;19.17;;;;;;;;;;6220610;23;20004;-87
2022/03/28 16:26:46;;;;;;;26.53;17.90;;;;;;;;;;6247573;23;20000;-88
2022/03/28 16:29:12;;;;;;;28.23;17.77;;;;;;;;;;6247783;23;20011;-88
2022/03/28 16:31:39;;;;;;;22.58;16.98;;;;;;;;;;6220287;23;20011;-88
2022/03/28 16:34:05;;;;;;;23.08;16.60;;;;;;;;;;6221063;23;20012;-87
2022/03/28 16:39:52;;;;;;;24.35;17.20;;;;;;;;;;6247229;23;20065;-87
2022/03/28 16:42:31;;;;;;;21.85;15.27;;;;;;;;;;6246917;23;20004;-91
2022/03/28 16:45:07;;;;;;;21.75;14.82;;;;;;;;;;6220584;23;20000;-89
2022/03/28 16:47:49;;;;;;;21.58;16.13;;;;;;;;;;6247530;23;20008;-87
2022/03/28 16:50:20;;;;;;;30.02;18.23;;;;;;;;;;6250035;23;20419;-92
2022/03/28 16:52:56;;;;;;;27.85;16.30;;;;;;;;;;6220122;23;20008;-88
2022/03/28 16:55:36;;;;;;;25.48;16.90;;;;;;;;;;6220499;23;20066;-87
2022/03/28 16:58:10;;;;;;;22.88;15.60;;;;;;;;;;6219850;23;20445;-85
2022/03/28 17:00:40;;;;;;;21.55;14.52;;;;;;;;;;6246853;23;20026;-88
2022/03/28 17:03:14;;;;;;;20.02;14.63;;;;;;;;;;6220346;23;20000;-89
2022/03/28 17:05:40;;;;;;;24.30;16.35;;;;;;;;;;6220095;23;20008;-88
2022/03/28 17:08:06;;;;;;;22.33;14.95;;;;;;;;;;6220031;23;20010;-87
2022/03/28 17:10:32;;;;;;;22.85;15.65;;;;;;;;;;6220051;23;20000;-88
2022/03/28 17:13:07;;;;;;;24.15;15.98;;;;;;;;;;6252448;23;20000;-88
2022/03/28 17:15:52;;;;;;;;;;;;;;;;;;;;;
2022/03/28 17:18:28;;;;;;;24.30;16.70;;;;;;;;;;6247356;23;20083;-87
2022/03/28 17:20:56;;;;;;;26.20;18.17;;;;;;;;;;6219524;23;20088;-88
2022/03/28 17:23:33;;;;;;;27.02;16.90;;;;;;;;;;6246883;23;20010;-87
2022/03/28 17:26:00;;;;;;;21.00;15.05;;;;;;;;;;6247153;23;19996;-88
2022/03/28 17:28:25;;;;;;;20.27;14.25;;;;;;;;;;6219900;23;20004;-87
2022/03/28 17:30:52;;;;;;;20.88;14.20;;;;;;;;;;6246665;23;19999;-87
2022/03/28 17:33:18;;;;;;;21.00;14.90;;;;;;;;;;6246962;23;20118;-87
2022/03/28 17:35:44;;;;;;;27.45;20.00;;;;;;;;;;6246635;23;20396;-86
2022/03/28 17:38:10;;;;;;;30.73;20.92;;;;;;;;;;6220177;23;20098;-87
2022/03/28 17:40:36;;;;;;;27.10;18.33;;;;;;;;;;6219437;23;20034;-90
2022/03/28 17:43:06;;;;;;;26.45;16.73;;;;;;;;;;6219969;23;20499;-88
2022/03/28 17:45:32;;;;;;;24.02;15.88;;;;;;;;;;6223113;23;20095;-90
2022/03/28 17:47:59;;;;;;;19.02;14.27;;;;;;;;;;6246860;23;20004;-90
2022/03/28 17:50:26;;;;;;;21.48;15.15;;;;;;;;;;6220050;23;20007;-89
2022/03/28 17:52:52;;;;;;;23.15;15.13;;;;;;;;;;6220303;23;20386;-89
2022/03/28 17:55:18;;;;;;;24.27;16.05;;;;;;;;;;6220604;23;20386;-88
2022/03/28 17:57:44;;;;;;;22.08;14.93;;;;;;;;;;6246776;23;20412;-89
2022/03/28 18:00:11;;;;;;;21.55;14.25;;;;;;;;;;6246904;23;20058;-89
2022/03/28 18:02:37;;;;;;;21.88;15.32;;;;;;;;;;6246650;23;20079;-87
2022/03/28 18:05:19;;;;;;;24.13;16.50;;;;;;;;;;6246741;23;20422;-88
2022/03/28 18:07:45;;;;;;;23.65;16.38;;;;;;;;;;6246332;23;20046;-88
2022/03/28 18:10:12;;;;;;;24.25;18.92;;;;;;;;;;6219474;23;20005;-86
2022/03/28 18:12:38;;;;;;;25.40;16.80;;;;;;;;;;6246541;23;20323;-88
2022/03/28 18:15:05;;;;;;;22.67;15.27;;;;;;;;;;6219376;23;20424;-86
2022/03/28 18:17:32;;;;;;;22.42;16.33;;;;;;;;;;6219587;23;20000;-87
2022/03/28 18:19:58;;;;;;;23.30;15.98;;;;;;;;;;6246233;23;20411;-86
2022/03/28 18:22:23;;;;;;;22.42;16.13;;;;;;;;;;6246498;23;20006;-86
2022/03/28 18:24:49;;;;;;;25.48;17.20;;;;;;;;;;6246621;23;20319;-87
2022/03/28 18:27:14;;;;;;;23.65;16.33;;;;;;;;;;6246324;23;20000;-86
2022/03/28 18:29:40;;;;;;;22.67;16.88;;;;;;;;;;6219406;23;20015;-86
2022/03/28 18:32:06;;;;;;;22.40;16.02;;;;;;;;;;6246662;23;20007;-87
2022/03/28 18:34:32;;;;;;;25.67;17.40;;;;;;;;;;6248618;23;20319;-88
2022/03/28 18:36:57;;;;;;;26.50;16.35;;;;;;;;;;6248389;23;20001;-86
2022/03/28 18:39:22;;;;;;;26.85;17.05;;;;;;;;;;6221547;23;20001;-86
2022/03/28 18:41:51;;;;;;;22.95;16.90;;;;;;;;;;6248421;23;20039;-86
2022/03/28 18:44:20;;;;;;;26.02;17.40;;;;;;;;;;6248410;23;20011;-87
2022/03/28 18:46:50;;;;;;;27.77;17.98;;;;;;;;;;6221438;23;20058;-86
2022/03/28 18:49:15;;;;;;;;;;;;;;;;;;6247272;23;20024;-86
2022/03/28 18:51:41;;;;;;;23.92;15.45;;;;;;;;;;6248291;23;19914;-87
2022/03/28 18:54:06;;;;;;;21.85;15.73;;;;;;;;;;6221807;23;20362;-87
2022/03/28 18:56:32;;;;;;;22.48;16.65;;;;;;;;;;6248208;23;20007;-87
2022/03/28 18:58:57;;;;;;;24.52;15.98;;;;;;;;;;6221379;23;20095;-86
2022/03/28 19:01:24;;;;;;;22.92;16.15;;;;;;;;;;6248268;23;20008;-87
2022/03/28 19:03:52;;;;;;;25.50;17.08;;;;;;;;;;6248180;23;20382;-87
2022/03/28 19:06:19;;;;;;;27.67;18.27;;;;;;;;;;6248293;23;20052;-86
2022/03/28 19:09:04;;;;;;;30.50;17.77;;;;;;;;;;6249053;23;20011;-86
2022/03/28 19:11:29;;;;;;;26.30;16.88;;;;;;;;;;6248559;23;20062;-86
2022/03/28 19:13:55;;;;;;;28.48;19.50;;;;;;;;;;6247521;23;20439;-87
2022/03/28 19:16:21;;;;;;;26.85;18.70;;;;;;;;;;6221040;23;20431;-87
2022/03/28 19:18:47;;;;;;;25.88;17.83;;;;;;;;;;6247835;23;20084;-86
2022/03/28 19:21:12;;;;;;;24.05;16.92;;;;;;;;;;6248105;23;20004;-88
2022/03/28 19:23:38;;;;;;;27.48;18.08;;;;;;;;;;6244183;23;19996;-87
2022/03/28 19:26:03;;;;;;;26.02;17.60;;;;;;;;;;6246687;23;20007;-86
2022/03/28 19:28:30;;;;;;;26.65;17.17;;;;;;;;;;6246588;23;20034;-85
2022/03/28 19:30:56;;;;;;;22.83;15.77;;;;;;;;;;6248088;23;20004;-85
2022/03/28 19:33:22;;;;;;;27.25;17.13;;;;;;;;;;6220676;23;20004;-85
2022/03/28 19:35:49;;;;;;;27.15;17.20;;;;;;;;;;6248086;23;19997;-85
2022/03/28 19:38:15;;;;;;;27.05;18.25;;;;;;;;;;6248241;23;20004;-85
2022/03/28 19:40:41;;;;;;;27.90;18.90;;;;;;;;;;6247801;23;20079;-85
2022/03/28 19:43:07;;;;;;;24.25;15.63;;;;;;;;;;6220957;23;20032;-84
2022/03/28 19:45:33;;;;;;;25.65;17.67;;;;;;;;;;6247312;23;20386;-84
2022/03/28 19:48:03;;;;;;;23.95;16.45;;;;;;;;;;6247784;23;20102;-84
2022/03/28 19:50:37;;;;;;;25.92;16.60;;;;;;;;;;6247655;23;20323;-85
2022/03/28 19:53:07;;;;;;;25.52;16.60;;;;;;;;;;6247350;23;20324;-85
2022/03/28 19:55:34;;;;;;;24.27;17.02;;;;;;;;;;6247922;23;20000;-85
2022/03/28 19:57:59;;;;;;;28.42;17.60;;;;;;;;;;6248002;23;20057;-85
2022/03/28 20:00:25;;;;;;;23.92;17.17;;;;;;;;;;6247502;23;20431;-84
2022/03/28 20:02:51;;;;;;;27.85;17.63;;;;;;;;;;6247976;23;20024;-84
2022/03/28 20:05:16;;;;;;;24.60;16.73;;;;;;;;;;6247694;23;20327;-85
2022/03/28 20:07:42;;;;;;;28.70;18.17;;;;;;;;;;6247617;23;20000;-85
2022/03/28 20:10:09;;;;;;;27.90;18.13;;;;;;;;;;6247572;23;20054;-86
2022/03/28 20:12:34;;;;;;;29.17;18.55;;;;;;;;;;6246307;23;20047;-85
2022/03/28 20:15:00;;;;;;;25.50;17.02;;;;;;;;;;6247288;23;20020;-85
2022/03/28 20:17:25;;;;;;;26.77;17.42;;;;;;;;;;6247348;23;20063;-86
2022/03/28 20:19:51;;;;;;;27.80;17.73;;;;;;;;;;6247395;23;20032;-86
2022/03/28 20:22:16;;;;;;;24.60;17.15;;;;;;;;;;6220428;23;20008;-87
2022/03/28 20:24:43;;;;;;;29.70;18.50;;;;;;;;;;6220610;23;20008;-87
2022/03/28 20:27:11;;;;;;;;;;;;;;;;;;6247469;23;20327;-86
2022/03/28 20:29:39;;;;;;;24.58;17.45;;;;;;;;;;6247080;23;19911;-87
2022/03/28 20:32:10;;;;;;;25.17;17.15;;;;;;;;;;6220163;23;20012;-85
2022/03/28 20:34:42;;;;;;;24.48;17.58;;;;;;;;;;6247441;23;20031;-84
2022/03/28 20:37:16;;;;;;;28.52;17.35;;;;;;;;;;6246848;23;20008;-86
2022/03/28 20:39:42;;;;;;;25.10;17.10;;;;;;;;;;6246791;23;20007;-86
2022/03/28 20:42:09;;;;;;;25.70;17.48;;;;;;;;;;6194889;23;20011;-85
2022/03/28 20:44:41;;;;;;;26.05;17.55;;;;;;;;;;6247064;23;20058;-85
2022/03/28 20:47:07;;;;;;;26.92;17.40;;;;;;;;;;6220201;23;20000;-85
2022/03/28 20:49:33;;;;;;;25.98;16.42;;;;;;;;;;6246867;23;20004;-85
2022/03/28 20:51:58;;;;;;;25.55;18.02;;;;;;;;;;6247025;23;20008;-86
2022/03/28 20:54:24;;;;;;;26.38;17.75;;;;;;;;;;6220035;23;20014;-86
2022/03/28 20:56:50;;;;;;;27.13;17.58;;;;;;;;;;6246789;23;20083;-85
2022/03/28 20:59:16;;;;;;;27.65;18.00;;;;;;;;;;6220192;23;20391;-86
2022/03/28 21:01:43;;;;;;;27.15;18.88;;;;;;;;;;6219745;23;20012;-85
2022/03/28 21:04:10;;;;;;;27.85;19.38;;;;;;;;;;6246927;23;20109;-86
2022/03/28 21:06:36;;;;;;;25.90;18.30;;;;;;;;;;6247111;23;20004;-85
2022/03/28 21:09:02;;;;;;;25.85;18.35;;;;;;;;;;6220151;23;20005;-86
2022/03/28 21:11:27;;;;;;;27.42;18.38;;;;;;;;;;6246923;23;20042;-84
2022/03/28 21:13:53;;;;;;;28.98;17.88;;;;;;;;;;6246942;23;20020;-86
2022/03/28 21:16:18;;;;;;;27.98;18.83;;;;;;;;;;6247175;23;20031;-85
2022/03/28 21:18:49;;;;;;;29.98;19.20;;;;;;;;;;6246862;23;19996;-85
2022/03/28 21:21:17;;;;;;;28.02;18.40;;;;;;;;;;6246552;23;20031;-88
2022/03/28 21:23:49;;;;;;;33.20;19.23;;;;;;;;;;6219901;23;20015;-87
2022/03/28 21:26:14;;;;;;;28.77;19.23;;;;;;;;;;6247080;23;20011;-87
2022/03/28 21:28:40;;;;;;;27.73;19.33;;;;;;;;;;6220020;23;20008;-87
2022/03/28 21:31:05;;;;;;;33.25;20.05;;;;;;;;;;6246451;23;20003;-87
2022/03/28 21:33:35;;;;;;;29.88;20.33;;;;;;;;;;6247019;23;20481;-86
2022/03/28 21:36:02;;;;;;;;;;;;;;;;;;6247588;23;20011;-88
2022/03/28 21:38:28;;;;;;;29.20;18.55;;;;;;;;;;6246591;23;20239;-88
2022/03/28 21:40:55;;;;;;;27.33;18.75;;;;;;;;;;6246438;23;20004;-87
2022/03/28 21:43:21;;;;;;;30.15;19.85;;;;;;;;;;6246865;23;20007;-86
2022/03/28 21:45:47;;;;;;;33.03;20.83;;;;;;;;;;6246788;23;20012;-87
2022/03/28 21:48:12;;;;;;;33.80;19.90;;;;;;;;;;6246692;23;20004;-88
2022/03/28 21:50:41;;;;;;;29.27;19.55;;;;;;;;;;6246496;23;20301;-87
2022/03/28 21:53:08;;;;;;;32.67;19.42;;;;;;;;;;6219724;23;20008;-85
2022/03/28 21:55:33;;;;;;;28.70;18.70;;;;;;;;;;6246942;23;20004;-88
2022/03/28 21:57:59;;;;;;;30.33;20.13;;;;;;;;;;6246846;23;20054;-87
2022/03/28 22:00:46;;;;;;;32.00;19.73;;;;;;;;;;6219637;23;20062;-86
2022/03/28 22:03:14;;;;;;;31.40;20.38;;;;;;;;;;6246689;23;20005;-86
2022/03/28 22:05:40;;;;;;;32.13;19.42;;;;;;;;;;6246310;23;20006;-87
2022/03/28 22:08:05;;;;;;;29.30;20.40;;;;;;;;;;6246192;23;20067;-87
2022/03/28 22:10:32;;;;;;;30.45;20.13;;;;;;;;;;6246364;23;20007;-86
2022/03/28 22:12:57;;;;;;;29.58;20.23;;;;;;;;;;6247064;23;20379;-86
2022/03/28 22:15:23;;;;;;;31.83;20.52;;;;;;;;;;6246215;23;20062;-87
2022/03/28 22:17:48;;;;;;;30.95;20.40;;;;;;;;;;6246528;23;20039;-87
2022/03/28 22:20:14;;;;;;;31.73;20.63;;;;;;;;;;6245986;23;19999;-87
2022/03/28 22:22:40;;;;;;;30.35;20.08;;;;;;;;;;6246690;23;20028;-87
